sensor_id;sensor_type;location;lat;lon;timestamp;pressure;altitude;pressure_sealevel;temperature;humidity
80629;BME280;69983;42.370;-71.210;2024-02-16T00:00:44;100954.57;;;21.42;31.89
80629;BME280;69983;42.370;-71.210;2024-02-16T00:02:45;100953.80;;;21.07;32.09
80629;BME280;69983;42.370;-71.210;2024-02-16T00:04:45;100946.32;;;21.60;31.77
80629;BME280;69983;42.370;-71.210;2024-02-16T00:06:45;100938.85;;;21.80;31.88
80629;BME280;69983;42.370;-71.210;2024-02-16T00:08:46;100935.01;;;21.52;32.31
80629;BME280;69983;42.370;-71.210;2024-02-16T00:10:48;100931.82;;;21.26;32.45
80629;BME280;69983;42.370;-71.210;2024-02-16T00:12:47;100924.69;;;21.52;32.35
80629;BME280;69983;42.370;-71.210;2024-02-16T00:14:47;100916.84;;;21.78;32.39
80629;BME280;69983;42.370;-71.210;2024-02-16T00:16:48;100916.42;;;21.40;32.65
80629;BME280;69983;42.370;-71.210;2024-02-16T00:18:48;100922.47;;;21.53;32.58
80629;BME280;69983;42.370;-71.210;2024-02-16T00:20:49;100922.19;;;21.90;32.24
80629;BME280;69983;42.370;-71.210;2024-02-16T00:22:49;100925.81;;;21.61;32.36
80629;BME280;69983;42.370;-71.210;2024-02-16T00:24:49;100927.11;;;21.50;32.52
80629;BME280;69983;42.370;-71.210;2024-02-16T00:26:49;100929.08;;;21.81;32.56
80629;BME280;69983;42.370;-71.210;2024-02-16T00:28:49;100925.67;;;21.63;32.81
80629;BME280;69983;42.370;-71.210;2024-02-16T00:30:50;100922.97;;;21.98;32.52
80629;BME280;69983;42.370;-71.210;2024-02-16T00:32:50;100921.72;;;22.00;32.53
80629;BME280;69983;42.370;-71.210;2024-02-16T00:34:51;100914.06;;;21.88;32.70
80629;BME280;69983;42.370;-71.210;2024-02-16T00:36:51;100906.81;;;22.03;32.64
80629;BME280;69983;42.370;-71.210;2024-02-16T00:38:51;100900.77;;;21.98;32.78
80629;BME280;69983;42.370;-71.210;2024-02-16T00:40:53;100889.39;;;21.99;32.86
80629;BME280;69983;42.370;-71.210;2024-02-16T00:42:52;100884.19;;;22.16;32.73
80629;BME280;69983;42.370;-71.210;2024-02-16T00:44:53;100885.98;;;22.04;32.91
80629;BME280;69983;42.370;-71.210;2024-02-16T00:46:53;100881.23;;;21.88;32.93
80629;BME280;69983;42.370;-71.210;2024-02-16T00:48:53;100872.38;;;21.93;32.87
80629;BME280;69983;42.370;-71.210;2024-02-16T00:50:54;100866.10;;;22.10;32.70
80629;BME280;69983;42.370;-71.210;2024-02-16T00:52:54;100866.06;;;21.81;33.00
80629;BME280;69983;42.370;-71.210;2024-02-16T00:54:55;100861.60;;;22.27;32.75
80629;BME280;69983;42.370;-71.210;2024-02-16T00:56:55;100861.15;;;22.48;32.50
80629;BME280;69983;42.370;-71.210;2024-02-16T00:58:56;100860.77;;;21.71;32.75
80629;BME280;69983;42.370;-71.210;2024-02-16T01:00:57;100852.74;;;22.00;32.67
80629;BME280;69983;42.370;-71.210;2024-02-16T01:02:57;100845.31;;;21.93;32.76
80629;BME280;69983;42.370;-71.210;2024-02-16T01:04:58;100835.19;;;21.87;32.55
80629;BME280;69983;42.370;-71.210;2024-02-16T01:06:58;100823.82;;;21.59;32.76
80629;BME280;69983;42.370;-71.210;2024-02-16T01:09:00;100818.99;;;21.62;32.74
80629;BME280;69983;42.370;-71.210;2024-02-16T01:10:59;100814.93;;;22.06;32.73
80629;BME280;69983;42.370;-71.210;2024-02-16T01:12:59;100808.22;;;21.77;32.49
80629;BME280;69983;42.370;-71.210;2024-02-16T01:14:59;100805.05;;;22.22;32.28
80629;BME280;69983;42.370;-71.210;2024-02-16T01:16:59;100796.98;;;22.03;32.77
80629;BME280;69983;42.370;-71.210;2024-02-16T01:18:59;100784.44;;;21.89;32.35
80629;BME280;69983;42.370;-71.210;2024-02-16T01:21:00;100774.18;;;22.19;32.31
80629;BME280;69983;42.370;-71.210;2024-02-16T01:23:00;100767.09;;;22.18;32.03
80629;BME280;69983;42.370;-71.210;2024-02-16T01:25:01;100765.16;;;22.47;32.18
80629;BME280;69983;42.370;-71.210;2024-02-16T01:27:02;100763.46;;;22.80;31.79
80629;BME280;69983;42.370;-71.210;2024-02-16T01:29:03;100763.92;;;22.60;31.96
80629;BME280;69983;42.370;-71.210;2024-02-16T01:31:03;100774.17;;;22.37;31.71
80629;BME280;69983;42.370;-71.210;2024-02-16T01:33:03;100777.43;;;22.67;31.65
80629;BME280;69983;42.370;-71.210;2024-02-16T01:35:06;100784.04;;;22.48;31.81
80629;BME280;69983;42.370;-71.210;2024-02-16T01:37:05;100793.35;;;22.39;31.92
80629;BME280;69983;42.370;-71.210;2024-02-16T01:39:05;100804.09;;;22.31;31.98
80629;BME280;69983;42.370;-71.210;2024-02-16T01:41:06;100819.06;;;21.95;32.14
80629;BME280;69983;42.370;-71.210;2024-02-16T01:43:08;100831.77;;;22.21;32.06
80629;BME280;69983;42.370;-71.210;2024-02-16T01:45:08;100833.61;;;22.48;32.07
80629;BME280;69983;42.370;-71.210;2024-02-16T01:47:08;100828.88;;;21.88;32.09
80629;BME280;69983;42.370;-71.210;2024-02-16T01:49:09;100829.55;;;22.45;31.78
80629;BME280;69983;42.370;-71.210;2024-02-16T01:51:09;100830.08;;;22.06;32.18
80629;BME280;69983;42.370;-71.210;2024-02-16T01:53:10;100837.26;;;22.56;31.78
80629;BME280;69983;42.370;-71.210;2024-02-16T01:55:12;100825.31;;;22.11;32.24
80629;BME280;69983;42.370;-71.210;2024-02-16T01:57:11;100823.05;;;22.51;31.52
80629;BME280;69983;42.370;-71.210;2024-02-16T01:59:10;100810.21;;;22.04;31.98
80629;BME280;69983;42.370;-71.210;2024-02-16T02:01:12;100811.67;;;22.71;31.50
80629;BME280;69983;42.370;-71.210;2024-02-16T02:03:12;100813.60;;;22.09;31.66
80629;BME280;69983;42.370;-71.210;2024-02-16T02:05:13;100805.56;;;22.39;31.52
80629;BME280;69983;42.370;-71.210;2024-02-16T02:07:13;100790.39;;;22.32;31.62
80629;BME280;69983;42.370;-71.210;2024-02-16T02:09:13;100782.96;;;22.00;31.67
80629;BME280;69983;42.370;-71.210;2024-02-16T02:11:13;100755.20;;;22.15;31.49
80629;BME280;69983;42.370;-71.210;2024-02-16T02:13:13;100744.50;;;22.21;31.44
80629;BME280;69983;42.370;-71.210;2024-02-16T02:15:14;100767.96;;;22.43;31.24
80629;BME280;69983;42.370;-71.210;2024-02-16T02:17:14;100776.84;;;22.11;31.59
80629;BME280;69983;42.370;-71.210;2024-02-16T02:19:14;100788.41;;;22.09;31.63
80629;BME280;69983;42.370;-71.210;2024-02-16T02:21:15;100796.59;;;22.54;31.37
80629;BME280;69983;42.370;-71.210;2024-02-16T02:23:16;100791.47;;;22.46;31.44
80629;BME280;69983;42.370;-71.210;2024-02-16T02:25:16;100789.92;;;22.19;31.42
80629;BME280;69983;42.370;-71.210;2024-02-16T02:27:17;100794.14;;;22.32;31.29
80629;BME280;69983;42.370;-71.210;2024-02-16T02:29:18;100791.69;;;22.64;31.20
80629;BME280;69983;42.370;-71.210;2024-02-16T02:31:18;100799.73;;;22.37;31.21
80629;BME280;69983;42.370;-71.210;2024-02-16T02:33:18;100800.49;;;22.34;31.45
80629;BME280;69983;42.370;-71.210;2024-02-16T02:35:18;100806.57;;;22.42;31.37
80629;BME280;69983;42.370;-71.210;2024-02-16T02:37:18;100806.24;;;22.19;31.43
80629;BME280;69983;42.370;-71.210;2024-02-16T02:39:19;100809.80;;;22.43;31.36
80629;BME280;69983;42.370;-71.210;2024-02-16T02:41:20;100798.26;;;22.36;31.45
80629;BME280;69983;42.370;-71.210;2024-02-16T02:43:21;100787.58;;;22.52;31.22
80629;BME280;69983;42.370;-71.210;2024-02-16T02:45:22;100775.76;;;22.24;31.23
80629;BME280;69983;42.370;-71.210;2024-02-16T02:47:21;100770.70;;;22.17;31.34
80629;BME280;69983;42.370;-71.210;2024-02-16T02:49:22;100778.61;;;22.84;30.86
80629;BME280;69983;42.370;-71.210;2024-02-16T02:51:23;100777.73;;;21.95;31.56
80629;BME280;69983;42.370;-71.210;2024-02-16T02:53:22;100773.05;;;22.28;31.22
80629;BME280;69983;42.370;-71.210;2024-02-16T02:55:22;100767.58;;;22.40;31.08
80629;BME280;69983;42.370;-71.210;2024-02-16T02:57:23;100759.82;;;22.39;31.39
80629;BME280;69983;42.370;-71.210;2024-02-16T02:59:23;100749.76;;;21.89;31.43
80629;BME280;69983;42.370;-71.210;2024-02-16T03:01:24;100741.53;;;22.26;31.78
80629;BME280;69983;42.370;-71.210;2024-02-16T03:03:25;100736.87;;;22.27;31.61
80629;BME280;69983;42.370;-71.210;2024-02-16T03:05:25;100736.11;;;22.37;31.43
80629;BME280;69983;42.370;-71.210;2024-02-16T03:07:26;100726.52;;;21.77;31.79
80629;BME280;69983;42.370;-71.210;2024-02-16T03:09:26;100723.04;;;22.09;31.50
80629;BME280;69983;42.370;-71.210;2024-02-16T03:11:26;100723.68;;;22.31;31.30
80629;BME280;69983;42.370;-71.210;2024-02-16T03:13:26;100712.66;;;22.25;31.59
80629;BME280;69983;42.370;-71.210;2024-02-16T03:15:27;100711.04;;;22.04;31.54
80629;BME280;69983;42.370;-71.210;2024-02-16T03:17:27;100699.16;;;22.45;31.36
80629;BME280;69983;42.370;-71.210;2024-02-16T03:19:28;100697.50;;;21.97;31.58
80629;BME280;69983;42.370;-71.210;2024-02-16T03:21:28;100689.66;;;21.90;31.68
80629;BME280;69983;42.370;-71.210;2024-02-16T03:23:28;100681.99;;;22.45;31.08
80629;BME280;69983;42.370;-71.210;2024-02-16T03:25:29;100670.96;;;22.65;31.01
80629;BME280;69983;42.370;-71.210;2024-02-16T03:27:29;100663.87;;;22.10;31.24
80629;BME280;69983;42.370;-71.210;2024-02-16T03:29:30;100654.67;;;22.13;31.09
80629;BME280;69983;42.370;-71.210;2024-02-16T03:31:31;100644.37;;;22.07;31.03
80629;BME280;69983;42.370;-71.210;2024-02-16T03:33:31;100630.34;;;21.26;32.09
80629;BME280;69983;42.370;-71.210;2024-02-16T03:35:31;100623.83;;;21.74;31.20
80629;BME280;69983;42.370;-71.210;2024-02-16T03:37:34;100616.18;;;21.88;30.75
80629;BME280;69983;42.370;-71.210;2024-02-16T03:39:33;100604.83;;;22.00;30.36
80629;BME280;69983;42.370;-71.210;2024-02-16T03:41:33;100590.54;;;22.11;29.81
80629;BME280;69983;42.370;-71.210;2024-02-16T03:43:35;100585.93;;;21.83;29.57
80629;BME280;69983;42.370;-71.210;2024-02-16T03:45:34;100578.94;;;21.86;29.59
80629;BME280;69983;42.370;-71.210;2024-02-16T03:47:35;100571.05;;;22.04;30.18
80629;BME280;69983;42.370;-71.210;2024-02-16T03:49:35;100569.38;;;21.63;30.63
80629;BME280;69983;42.370;-71.210;2024-02-16T03:51:35;100561.89;;;21.79;30.58
80629;BME280;69983;42.370;-71.210;2024-02-16T03:53:37;100555.93;;;21.83;30.65
80629;BME280;69983;42.370;-71.210;2024-02-16T03:55:36;100543.46;;;21.71;31.09
80629;BME280;69983;42.370;-71.210;2024-02-16T03:57:37;100535.64;;;21.85;31.01
80629;BME280;69983;42.370;-71.210;2024-02-16T03:59:37;100526.98;;;21.88;31.01
80629;BME280;69983;42.370;-71.210;2024-02-16T04:01:38;100518.46;;;21.64;31.15
80629;BME280;69983;42.370;-71.210;2024-02-16T04:03:38;100513.19;;;21.93;31.08
80629;BME280;69983;42.370;-71.210;2024-02-16T04:05:39;100507.91;;;21.58;31.38
80629;BME280;69983;42.370;-71.210;2024-02-16T04:07:39;100501.72;;;21.50;31.55
80629;BME280;69983;42.370;-71.210;2024-02-16T04:09:39;100501.56;;;21.54;31.34
80629;BME280;69983;42.370;-71.210;2024-02-16T04:11:39;100495.18;;;21.67;31.51
80629;BME280;69983;42.370;-71.210;2024-02-16T04:13:40;100482.86;;;21.90;31.56
80629;BME280;69983;42.370;-71.210;2024-02-16T04:15:40;100479.52;;;21.59;31.66
80629;BME280;69983;42.370;-71.210;2024-02-16T04:17:41;100472.89;;;21.73;31.80
80629;BME280;69983;42.370;-71.210;2024-02-16T04:19:42;100458.60;;;21.54;31.71
80629;BME280;69983;42.370;-71.210;2024-02-16T04:21:42;100449.16;;;21.71;31.82
80629;BME280;69983;42.370;-71.210;2024-02-16T04:23:43;100444.40;;;21.69;31.85
80629;BME280;69983;42.370;-71.210;2024-02-16T04:25:43;100438.24;;;21.72;31.81
80629;BME280;69983;42.370;-71.210;2024-02-16T04:27:48;100435.14;;;21.45;31.88
80629;BME280;69983;42.370;-71.210;2024-02-16T04:29:43;100426.45;;;21.73;31.82
80629;BME280;69983;42.370;-71.210;2024-02-16T04:31:44;100420.74;;;21.46;31.88
80629;BME280;69983;42.370;-71.210;2024-02-16T04:33:47;100411.31;;;21.63;31.93
80629;BME280;69983;42.370;-71.210;2024-02-16T04:35:45;100400.96;;;21.73;31.89
80629;BME280;69983;42.370;-71.210;2024-02-16T04:37:46;100385.45;;;21.62;31.96
80629;BME280;69983;42.370;-71.210;2024-02-16T04:39:46;100374.37;;;21.63;31.96
80629;BME280;69983;42.370;-71.210;2024-02-16T04:41:47;100373.40;;;21.45;32.14
80629;BME280;69983;42.370;-71.210;2024-02-16T04:43:48;100376.58;;;21.66;31.92
80629;BME280;69983;42.370;-71.210;2024-02-16T04:45:48;100375.93;;;21.72;31.86
80629;BME280;69983;42.370;-71.210;2024-02-16T04:47:49;100381.57;;;21.54;32.06
80629;BME280;69983;42.370;-71.210;2024-02-16T04:49:49;100379.88;;;21.44;32.19
80629;BME280;69983;42.370;-71.210;2024-02-16T04:51:50;100375.43;;;21.41;32.19
80629;BME280;69983;42.370;-71.210;2024-02-16T04:53:50;100369.52;;;21.64;31.96
80629;BME280;69983;42.370;-71.210;2024-02-16T04:55:50;100365.81;;;21.62;31.96
80629;BME280;69983;42.370;-71.210;2024-02-16T04:57:51;100360.10;;;21.46;32.17
80629;BME280;69983;42.370;-71.210;2024-02-16T04:59:52;100359.95;;;21.67;31.92
80629;BME280;69983;42.370;-71.210;2024-02-16T05:01:52;100355.84;;;21.50;31.85
80629;BME280;69983;42.370;-71.210;2024-02-16T05:03:53;100348.67;;;21.55;32.06
80629;BME280;69983;42.370;-71.210;2024-02-16T05:05:53;100346.24;;;21.46;31.95
80629;BME280;69983;42.370;-71.210;2024-02-16T05:07:53;100346.28;;;21.49;32.21
80629;BME280;69983;42.370;-71.210;2024-02-16T05:09:53;100339.97;;;21.65;32.02
80629;BME280;69983;42.370;-71.210;2024-02-16T05:11:54;100331.04;;;21.41;32.30
80629;BME280;69983;42.370;-71.210;2024-02-16T05:13:55;100335.85;;;21.44;32.28
80629;BME280;69983;42.370;-71.210;2024-02-16T05:15:55;100340.35;;;21.43;32.33
80629;BME280;69983;42.370;-71.210;2024-02-16T05:17:56;100334.52;;;21.52;32.23
80629;BME280;69983;42.370;-71.210;2024-02-16T05:19:56;100321.01;;;21.48;32.26
80629;BME280;69983;42.370;-71.210;2024-02-16T05:21:57;100321.39;;;21.53;32.25
80629;BME280;69983;42.370;-71.210;2024-02-16T05:23:57;100313.61;;;21.38;32.41
80629;BME280;69983;42.370;-71.210;2024-02-16T05:25:57;100309.49;;;21.65;32.17
80629;BME280;69983;42.370;-71.210;2024-02-16T05:27:58;100309.40;;;21.71;32.13
80629;BME280;69983;42.370;-71.210;2024-02-16T05:29:58;100309.26;;;21.42;32.45
80629;BME280;69983;42.370;-71.210;2024-02-16T05:31:58;100296.94;;;21.47;32.36
80629;BME280;69983;42.370;-71.210;2024-02-16T05:34:02;100298.71;;;21.73;32.10
80629;BME280;69983;42.370;-71.210;2024-02-16T05:35:59;100296.65;;;21.62;32.18
80629;BME280;69983;42.370;-71.210;2024-02-16T05:37:59;100288.73;;;21.83;31.99
80629;BME280;69983;42.370;-71.210;2024-02-16T05:39:59;100284.55;;;21.40;32.43
80629;BME280;69983;42.370;-71.210;2024-02-16T05:42:00;100276.33;;;21.41;32.45
80629;BME280;69983;42.370;-71.210;2024-02-16T05:44:00;100268.31;;;21.54;32.34
80629;BME280;69983;42.370;-71.210;2024-02-16T05:46:12;100261.14;;;21.30;32.58
80629;BME280;69983;42.370;-71.210;2024-02-16T05:48:01;100252.24;;;21.39;32.53
80629;BME280;69983;42.370;-71.210;2024-02-16T05:50:01;100246.48;;;21.19;32.69
80629;BME280;69983;42.370;-71.210;2024-02-16T05:52:01;100236.94;;;21.25;32.72
80629;BME280;69983;42.370;-71.210;2024-02-16T05:54:02;100228.68;;;21.39;32.57
80629;BME280;69983;42.370;-71.210;2024-02-16T05:56:02;100219.52;;;21.50;32.44
80629;BME280;69983;42.370;-71.210;2024-02-16T05:58:02;100211.09;;;21.34;32.65
80629;BME280;69983;42.370;-71.210;2024-02-16T06:00:03;100202.17;;;21.21;32.80
80629;BME280;69983;42.370;-71.210;2024-02-16T06:02:02;100197.00;;;21.48;32.52
80629;BME280;69983;42.370;-71.210;2024-02-16T06:04:03;100192.13;;;21.35;32.68
80629;BME280;69983;42.370;-71.210;2024-02-16T06:06:09;100186.78;;;21.30;32.73
80629;BME280;69983;42.370;-71.210;2024-02-16T06:08:07;100176.48;;;21.54;32.48
80629;BME280;69983;42.370;-71.210;2024-02-16T06:10:04;100180.25;;;21.38;32.64
80629;BME280;69983;42.370;-71.210;2024-02-16T06:12:04;100174.61;;;21.45;32.54
80629;BME280;69983;42.370;-71.210;2024-02-16T06:14:03;100173.57;;;21.29;32.73
80629;BME280;69983;42.370;-71.210;2024-02-16T06:16:06;100168.98;;;21.26;32.80
80629;BME280;69983;42.370;-71.210;2024-02-16T06:18:09;100165.59;;;21.15;32.93
80629;BME280;69983;42.370;-71.210;2024-02-16T06:20:04;100165.51;;;21.01;33.07
80629;BME280;69983;42.370;-71.210;2024-02-16T06:22:04;100160.25;;;21.14;32.90
80629;BME280;69983;42.370;-71.210;2024-02-16T06:24:04;100156.85;;;21.25;32.77
80629;BME280;69983;42.370;-71.210;2024-02-16T06:26:06;100153.72;;;20.96;32.83
80629;BME280;69983;42.370;-71.210;2024-02-16T06:28:04;100151.39;;;21.27;32.97
80629;BME280;69983;42.370;-71.210;2024-02-16T06:30:11;100142.71;;;21.26;32.73
80629;BME280;69983;42.370;-71.210;2024-02-16T06:32:05;100141.67;;;21.22;33.03
80629;BME280;69983;42.370;-71.210;2024-02-16T06:34:04;100132.38;;;21.06;32.92
80629;BME280;69983;42.370;-71.210;2024-02-16T06:36:06;100124.26;;;21.23;32.75
80629;BME280;69983;42.370;-71.210;2024-02-16T06:38:05;100116.15;;;21.01;32.97
80629;BME280;69983;42.370;-71.210;2024-02-16T06:40:06;100111.43;;;21.01;33.00
80629;BME280;69983;42.370;-71.210;2024-02-16T06:42:05;100108.18;;;21.09;32.93
80629;BME280;69983;42.370;-71.210;2024-02-16T06:44:05;100104.43;;;21.45;33.08
80629;BME280;69983;42.370;-71.210;2024-02-16T06:46:05;100084.46;;;21.15;32.89
80629;BME280;69983;42.370;-71.210;2024-02-16T06:48:06;100080.04;;;20.93;33.08
80629;BME280;69983;42.370;-71.210;2024-02-16T06:50:06;100078.87;;;21.04;32.97
80629;BME280;69983;42.370;-71.210;2024-02-16T06:52:07;100076.94;;;20.93;33.07
80629;BME280;69983;42.370;-71.210;2024-02-16T06:54:06;100062.85;;;21.10;33.15
80629;BME280;69983;42.370;-71.210;2024-02-16T06:56:06;100050.97;;;21.24;32.99
80629;BME280;69983;42.370;-71.210;2024-02-16T06:58:05;100049.58;;;21.04;32.93
80629;BME280;69983;42.370;-71.210;2024-02-16T07:00:07;100050.17;;;21.10;33.14
80629;BME280;69983;42.370;-71.210;2024-02-16T07:02:11;100044.30;;;21.02;32.95
80629;BME280;69983;42.370;-71.210;2024-02-16T07:04:06;100041.58;;;20.91;33.07
80629;BME280;69983;42.370;-71.210;2024-02-16T07:06:07;100032.02;;;21.01;33.18
80629;BME280;69983;42.370;-71.210;2024-02-16T07:08:11;100030.87;;;21.12;33.07
80629;BME280;69983;42.370;-71.210;2024-02-16T07:10:07;100030.95;;;20.73;33.24
80629;BME280;69983;42.370;-71.210;2024-02-16T07:12:07;100025.64;;;21.33;32.85
80629;BME280;69983;42.370;-71.210;2024-02-16T07:14:07;100018.66;;;20.79;33.16
80629;BME280;69983;42.370;-71.210;2024-02-16T07:16:07;100012.12;;;21.19;32.97
80629;BME280;69983;42.370;-71.210;2024-02-16T07:18:07;100002.84;;;20.94;32.99
80629;BME280;69983;42.370;-71.210;2024-02-16T07:20:07;100002.68;;;21.00;32.89
80629;BME280;69983;42.370;-71.210;2024-02-16T07:22:08;99998.11;;;20.94;32.99
80629;BME280;69983;42.370;-71.210;2024-02-16T07:24:07;99997.07;;;20.94;33.02
80629;BME280;69983;42.370;-71.210;2024-02-16T07:26:07;99994.87;;;21.21;32.99
80629;BME280;69983;42.370;-71.210;2024-02-16T07:28:07;99993.47;;;20.92;33.07
80629;BME280;69983;42.370;-71.210;2024-02-16T07:30:08;99995.52;;;20.96;32.99
80629;BME280;69983;42.370;-71.210;2024-02-16T07:32:07;99992.77;;;21.30;33.15
80629;BME280;69983;42.370;-71.210;2024-02-16T07:34:07;99986.59;;;20.63;33.38
80629;BME280;69983;42.370;-71.210;2024-02-16T07:36:07;99986.32;;;20.89;33.10
80629;BME280;69983;42.370;-71.210;2024-02-16T07:38:12;99982.89;;;20.74;33.22
80629;BME280;69983;42.370;-71.210;2024-02-16T07:40:08;99984.87;;;20.93;33.29
80629;BME280;69983;42.370;-71.210;2024-02-16T07:42:07;99986.79;;;20.59;33.41
80629;BME280;69983;42.370;-71.210;2024-02-16T07:44:08;99982.18;;;20.70;33.31
80629;BME280;69983;42.370;-71.210;2024-02-16T07:46:12;99980.98;;;20.98;33.23
80629;BME280;69983;42.370;-71.210;2024-02-16T07:48:08;99983.72;;;20.96;33.27
80629;BME280;69983;42.370;-71.210;2024-02-16T07:50:08;99983.74;;;21.34;33.10
80629;BME280;69983;42.370;-71.210;2024-02-16T07:52:07;99978.84;;;21.04;33.14
80629;BME280;69983;42.370;-71.210;2024-02-16T07:54:08;99975.95;;;20.75;33.20
80629;BME280;69983;42.370;-71.210;2024-02-16T07:56:08;99980.82;;;21.05;33.15
80629;BME280;69983;42.370;-71.210;2024-02-16T07:58:08;99978.72;;;20.98;33.20
80629;BME280;69983;42.370;-71.210;2024-02-16T08:00:08;99979.17;;;21.09;33.09
80629;BME280;69983;42.370;-71.210;2024-02-16T08:02:08;99976.98;;;21.05;33.14
80629;BME280;69983;42.370;-71.210;2024-02-16T08:04:08;99972.73;;;21.03;33.14
80629;BME280;69983;42.370;-71.210;2024-02-16T08:06:08;99974.91;;;20.71;33.21
80629;BME280;69983;42.370;-71.210;2024-02-16T08:08:09;99972.46;;;21.17;33.24
80629;BME280;69983;42.370;-71.210;2024-02-16T08:10:09;99974.56;;;21.33;33.05
80629;BME280;69983;42.370;-71.210;2024-02-16T08:12:09;99974.13;;;21.02;33.10
80629;BME280;69983;42.370;-71.210;2024-02-16T08:14:09;99971.96;;;20.89;33.24
80629;BME280;69983;42.370;-71.210;2024-02-16T08:16:09;99972.79;;;20.95;33.19
80629;BME280;69983;42.370;-71.210;2024-02-16T08:18:09;99970.61;;;21.02;33.36
80629;BME280;69983;42.370;-71.210;2024-02-16T08:20:09;99969.74;;;21.03;33.10
80629;BME280;69983;42.370;-71.210;2024-02-16T08:22:09;99967.95;;;21.01;33.08
80629;BME280;69983;42.370;-71.210;2024-02-16T08:24:10;99965.15;;;20.78;33.06
80629;BME280;69983;42.370;-71.210;2024-02-16T08:26:14;99955.83;;;21.12;32.95
80629;BME280;69983;42.370;-71.210;2024-02-16T08:28:09;99951.89;;;20.81;33.01
80629;BME280;69983;42.370;-71.210;2024-02-16T08:30:10;99946.99;;;20.83;33.01
80629;BME280;69983;42.370;-71.210;2024-02-16T08:32:09;99945.14;;;20.99;33.06
80629;BME280;69983;42.370;-71.210;2024-02-16T08:34:09;99946.00;;;20.80;33.03
80629;BME280;69983;42.370;-71.210;2024-02-16T08:36:09;99944.11;;;21.20;33.16
80629;BME280;69983;42.370;-71.210;2024-02-16T08:38:09;99948.68;;;21.37;32.97
80629;BME280;69983;42.370;-71.210;2024-02-16T08:40:12;99947.96;;;20.88;33.25
80629;BME280;69983;42.370;-71.210;2024-02-16T08:42:10;99949.07;;;20.68;33.23
80629;BME280;69983;42.370;-71.210;2024-02-16T08:44:10;99948.90;;;21.20;33.16
80629;BME280;69983;42.370;-71.210;2024-02-16T08:46:10;99954.08;;;21.03;33.36
80629;BME280;69983;42.370;-71.210;2024-02-16T08:48:10;99956.57;;;21.03;33.33
80629;BME280;69983;42.370;-71.210;2024-02-16T08:50:10;99963.89;;;20.96;33.39
80629;BME280;69983;42.370;-71.210;2024-02-16T08:52:10;99956.88;;;20.71;33.43
80629;BME280;69983;42.370;-71.210;2024-02-16T08:54:11;99953.23;;;21.03;33.34
80629;BME280;69983;42.370;-71.210;2024-02-16T08:56:10;99950.95;;;20.96;33.41
80629;BME280;69983;42.370;-71.210;2024-02-16T08:58:10;99951.09;;;21.25;33.07
80629;BME280;69983;42.370;-71.210;2024-02-16T09:00:11;99952.67;;;20.83;33.52
80629;BME280;69983;42.370;-71.210;2024-02-16T09:02:10;99951.87;;;21.28;33.02
80629;BME280;69983;42.370;-71.210;2024-02-16T09:04:10;99953.22;;;20.95;33.39
80629;BME280;69983;42.370;-71.210;2024-02-16T09:06:10;99950.44;;;20.66;33.44
80629;BME280;69983;42.370;-71.210;2024-02-16T09:08:10;99955.65;;;20.65;33.22
80629;BME280;69983;42.370;-71.210;2024-02-16T09:10:11;99951.09;;;21.04;33.29
80629;BME280;69983;42.370;-71.210;2024-02-16T09:12:11;99954.06;;;21.18;33.14
80629;BME280;69983;42.370;-71.210;2024-02-16T09:14:16;99950.13;;;21.08;32.96
80629;BME280;69983;42.370;-71.210;2024-02-16T09:16:12;99951.88;;;20.89;33.20
80629;BME280;69983;42.370;-71.210;2024-02-16T09:18:16;99951.95;;;20.33;34.38
80629;BME280;69983;42.370;-71.210;2024-02-16T09:20:12;99952.46;;;19.74;34.92
80629;BME280;69983;42.370;-71.210;2024-02-16T09:22:11;99949.11;;;20.70;33.79
80629;BME280;69983;42.370;-71.210;2024-02-16T09:24:11;99945.88;;;20.82;33.36
80629;BME280;69983;42.370;-71.210;2024-02-16T09:26:12;99949.41;;;20.89;33.03
80629;BME280;69983;42.370;-71.210;2024-02-16T09:28:12;99952.24;;;20.80;33.09
80629;BME280;69983;42.370;-71.210;2024-02-16T09:30:13;99954.19;;;21.04;33.09
80629;BME280;69983;42.370;-71.210;2024-02-16T09:32:12;99951.94;;;21.19;33.23
80629;BME280;69983;42.370;-71.210;2024-02-16T09:34:12;99954.89;;;21.46;32.89
80629;BME280;69983;42.370;-71.210;2024-02-16T09:36:12;99958.70;;;21.35;32.99
80629;BME280;69983;42.370;-71.210;2024-02-16T09:38:12;99958.99;;;21.30;33.09
80629;BME280;69983;42.370;-71.210;2024-02-16T09:40:13;99963.05;;;20.91;33.26
80629;BME280;69983;42.370;-71.210;2024-02-16T09:42:12;99963.61;;;21.33;33.06
80629;BME280;69983;42.370;-71.210;2024-02-16T09:44:12;99961.29;;;20.51;33.43
80629;BME280;69983;42.370;-71.210;2024-02-16T09:46:12;99962.19;;;20.34;33.59
80629;BME280;69983;42.370;-71.210;2024-02-16T09:48:12;99963.10;;;20.95;33.23
80629;BME280;69983;42.370;-71.210;2024-02-16T09:50:13;99953.98;;;20.73;33.29
80629;BME280;69983;42.370;-71.210;2024-02-16T09:52:14;99952.68;;;20.89;33.29
80629;BME280;69983;42.370;-71.210;2024-02-16T09:54:13;99952.03;;;21.29;33.22
80629;BME280;69983;42.370;-71.210;2024-02-16T09:56:13;99948.17;;;20.83;33.44
80629;BME280;69983;42.370;-71.210;2024-02-16T09:58:13;99944.48;;;20.50;33.83
80629;BME280;69983;42.370;-71.210;2024-02-16T10:00:14;99957.84;;;19.80;35.01
80629;BME280;69983;42.370;-71.210;2024-02-16T10:02:13;99953.95;;;20.68;34.00
80629;BME280;69983;42.370;-71.210;2024-02-16T10:04:13;99948.71;;;20.94;33.65
80629;BME280;69983;42.370;-71.210;2024-02-16T10:06:14;99944.35;;;20.88;33.45
80629;BME280;69983;42.370;-71.210;2024-02-16T10:08:14;99944.73;;;20.94;33.35
80629;BME280;69983;42.370;-71.210;2024-02-16T10:10:21;99946.16;;;21.11;33.15
80629;BME280;69983;42.370;-71.210;2024-02-16T10:12:18;99947.75;;;21.11;33.40
80629;BME280;69983;42.370;-71.210;2024-02-16T10:14:13;99943.43;;;20.66;33.36